Time;durP1;ratioP1;P1;durP2;ratioP2;P2;SDS_P1;SDS_P2;PMS_P1;PMS_P2;Temp;Humidity;BMP_temperature;BMP_pressure;BME280_temperature;BME280_humidity;BME280_pressure;Samples;Min_cycle;Max_cycle;Signal;HPM_P1;HPM_P2
2023/08/29 00:01:04;;;;;;;1999.90;999.90;;;;;;;17.04;100.00;97101.25;5070612;28;20414;-92
2023/08/29 00:03:33;;;;;;;1999.90;999.90;;;;;;;16.91;100.00;97087.06;5071999;28;21375;-90
2023/08/29 00:06:01;;;;;;;1999.90;999.90;;;;;;;17.05;100.00;97102.09;5087726;28;20037;-92
2023/08/29 00:08:27;;;;;;;;;;;;;;;17.09;100.00;97105.38;5055305;28;20127;-91
2023/08/29 00:10:55;;;;;;;1999.90;999.90;;;;;;;17.11;100.00;97103.41;5087820;28;20012;-92
2023/08/29 00:13:21;;;;;;;1999.90;999.90;;;;;;;17.15;100.00;97099.50;5071694;28;20045;-93
2023/08/29 00:15:47;;;;;;;1999.90;999.90;;;;;;;17.14;100.00;97100.50;5053813;28;20041;-93
2023/08/29 00:18:12;;;;;;;1999.90;999.90;;;;;;;17.11;100.00;97098.03;5088534;28;20461;-92
2023/08/29 00:20:38;;;;;;;1999.90;999.90;;;;;;;17.04;100.00;97098.56;5057976;28;20041;-93
2023/08/29 00:23:09;;;;;;;1999.90;999.90;;;;;;;16.87;100.00;97085.59;5092501;28;20067;-93
2023/08/29 00:25:35;;;;;;;1999.90;999.90;;;;;;;16.77;100.00;97080.09;5077269;28;20044;-94
2023/08/29 00:28:00;;;;;;;1999.90;999.90;;;;;;;16.88;100.00;97106.13;5058631;28;20040;-93
2023/08/29 00:30:26;;;;;;;1999.90;999.90;;;;;;;16.87;100.00;97112.44;5086716;28;20061;-93
2023/08/29 00:32:52;;;;;;;1999.90;999.90;;;;;;;16.71;100.00;97095.81;5088121;28;20422;-93
2023/08/29 00:35:18;;;;;;;1999.90;999.90;;;;;;;16.80;100.00;97105.88;5054289;28;20033;-93
2023/08/29 00:37:44;;;;;;;1999.90;999.90;;;;;;;16.68;100.00;97088.88;5088142;28;20550;-93
2023/08/29 00:40:12;;;;;;;1999.90;999.90;;;;;;;16.76;100.00;97093.63;5055645;28;20056;-93
2023/08/29 00:42:38;;;;;;;1999.90;999.90;;;;;;;16.70;100.00;97103.03;5067591;28;20037;-93
2023/08/29 00:45:06;;;;;;;1999.90;999.90;;;;;;;16.82;100.00;97109.28;5073381;28;20086;-93
2023/08/29 00:47:32;;;;;;;1999.90;999.90;;;;;;;16.86;100.00;97112.59;5076117;28;20056;-92
2023/08/29 00:49:58;;;;;;;1999.90;999.90;;;;;;;16.70;100.00;97099.47;5059734;28;20052;-94
2023/08/29 00:52:24;;;;;;;1999.90;999.90;;;;;;;16.69;100.00;97082.53;5073113;28;20490;-94
2023/08/29 00:54:50;;;;;;;1999.90;999.90;;;;;;;16.80;100.00;97104.03;5059440;28;20040;-93
2023/08/29 00:57:18;;;;;;;1999.90;999.90;;;;;;;16.74;100.00;97103.63;5075413;28;20037;-92
2023/08/29 00:59:44;;;;;;;1999.90;999.90;;;;;;;16.60;100.00;97094.84;5074912;28;20037;-92
2023/08/29 01:02:10;;;;;;;1999.90;999.90;;;;;;;16.63;100.00;97083.00;5075419;28;20175;-94
2023/08/29 01:04:36;;;;;;;1999.90;999.90;;;;;;;16.69;100.00;97104.00;5058963;28;20057;-94
2023/08/29 01:07:03;;;;;;;1999.90;999.90;;;;;;;16.61;100.00;97088.50;5094541;28;20083;-94
2023/08/29 01:09:29;;;;;;;1999.90;999.90;;;;;;;16.60;100.00;97081.41;5059745;28;20037;-94
2023/08/29 01:12:14;;;;;;;1999.90;999.90;;;;;;;16.50;100.00;97067.00;5059600;28;20498;-93
2023/08/29 01:14:48;;;;;;;1999.90;999.90;;;;;;;16.60;100.00;97092.16;5077275;28;20059;-93
2023/08/29 01:17:20;;;;;;;1999.90;999.90;;;;;;;16.56;100.00;97084.47;5077216;28;20048;-94
2023/08/29 01:19:52;;;;;;;1999.90;999.90;;;;;;;16.71;100.00;97111.94;5077688;28;20045;-93
2023/08/29 01:22:27;;;;;;;1999.90;999.90;;;;;;;16.72;100.00;97105.56;5060026;28;20136;-93
2023/08/29 01:25:00;;;;;;;1999.90;999.90;;;;;;;16.62;100.00;97092.03;5077168;28;20076;-94
2023/08/29 01:27:29;;;;;;;1999.90;999.90;;;;;;;16.56;100.00;97082.63;5077467;28;20459;-93
2023/08/29 01:29:56;;;;;;;1999.90;999.90;;;;;;;16.52;100.00;97078.47;5076961;28;20487;-93
2023/08/29 01:32:25;;;;;;;1999.90;999.90;;;;;;;16.52;100.00;97085.66;5093686;28;20049;-94
2023/08/29 01:34:52;;;;;;;1999.90;999.90;;;;;;;16.56;100.00;97088.00;5092651;28;20067;-92
2023/08/29 01:37:18;;;;;;;1999.90;999.90;;;;;;;16.60;100.00;97105.56;5075705;28;20041;-93
2023/08/29 01:39:43;;;;;;;1999.90;999.90;;;;;;;16.64;100.00;97119.63;5076887;28;20067;-93
2023/08/29 01:42:09;;;;;;;1999.90;999.90;;;;;;;16.52;100.00;97091.88;5075609;28;20041;-94
2023/08/29 01:44:37;;;;;;;1999.90;999.90;;;;;;;16.64;100.00;97087.41;5075877;28;20086;-93
2023/08/29 01:47:03;;;;;;;1999.90;999.90;;;;;;;16.64;100.00;97087.41;5075793;28;20072;-94
2023/08/29 01:49:32;;;;;;;1999.90;999.90;;;;;;;16.75;100.00;97097.31;5058295;28;20580;-94
2023/08/29 01:51:58;;;;;;;1999.90;999.90;;;;;;;16.87;100.00;97101.72;5074419;28;20067;-93
2023/08/29 01:54:25;;;;;;;1999.90;999.90;;;;;;;16.80;100.00;97095.13;5074646;28;20048;-94
2023/08/29 01:56:54;;;;;;;1999.90;999.90;;;;;;;16.75;100.00;97070.47;5073919;28;20041;-93
2023/08/29 01:59:21;;;;;;;1999.90;999.90;;;;;;;16.84;100.00;97091.22;5073642;28;20048;-93
2023/08/29 02:01:49;;;;;;;1999.90;999.90;;;;;;;16.95;100.00;97101.97;5090140;28;20048;-95
2023/08/29 02:04:15;;;;;;;1999.90;999.90;;;;;;;16.80;100.00;97070.97;5090087;28;20041;-94
2023/08/29 02:06:41;;;;;;;1999.90;999.90;;;;;;;16.85;100.00;97082.22;5072668;28;20112;-93
2023/08/29 02:09:07;;;;;;;1999.90;999.90;;;;;;;16.85;100.00;97071.47;5072094;28;20136;-93
2023/08/29 02:11:33;;;;;;;1999.90;999.90;;;;;;;16.87;100.00;97079.38;5071470;28;20498;-93
2023/08/29 02:13:59;;;;;;;1999.90;999.90;;;;;;;16.93;100.00;97089.63;5054760;28;20091;-94
2023/08/29 02:16:25;;;;;;;1999.90;999.90;;;;;;;16.94;100.00;97089.53;5071863;28;20052;-93
2023/08/29 02:18:53;;;;;;;1999.90;999.90;;;;;;;16.99;100.00;97100.75;5088100;28;20075;-93
2023/08/29 02:21:18;;;;;;;1999.90;999.90;;;;;;;16.99;100.00;97095.38;5071021;28;20406;-94
2023/08/29 02:23:44;;;;;;;1999.90;999.90;;;;;;;16.98;100.00;97104.41;5054305;28;20041;-93
2023/08/29 02:26:10;;;;;;;1999.90;999.90;;;;;;;16.82;100.00;97072.53;5053822;28;20045;-93
2023/08/29 02:28:37;;;;;;;1999.90;999.90;;;;;;;16.90;100.00;97073.78;5070339;28;20132;-94
2023/08/29 02:31:03;;;;;;;1999.90;999.90;;;;;;;17.02;100.00;97102.31;5069849;28;20106;-93
2023/08/29 02:33:29;;;;;;;1999.90;999.90;;;;;;;16.99;100.00;97089.16;5070085;28;20453;-94
2023/08/29 02:35:57;;;;;;;1999.90;999.90;;;;;;;16.91;100.00;97087.06;5070053;28;20041;-94
2023/08/29 02:38:23;;;;;;;1999.90;999.90;;;;;;;16.90;100.00;97085.38;5053272;28;20144;-93
2023/08/29 02:40:48;;;;;;;1999.90;999.90;;;;;;;16.94;100.00;97094.91;5070510;28;20439;-94
2023/08/29 02:43:14;;;;;;;1999.90;999.90;;;;;;;16.94;100.00;97096.72;5069771;28;20049;-92
2023/08/29 02:45:40;;;;;;;1999.90;999.90;;;;;;;16.99;100.00;97095.38;5052714;28;20403;-94
2023/08/29 02:48:06;;;;;;;1999.90;999.90;;;;;;;16.95;100.00;97088.53;5052675;28;20048;-92
2023/08/29 02:50:33;;;;;;;1999.90;999.90;;;;;;;16.95;100.00;97096.59;5068415;28;20045;-93
2023/08/29 02:53:00;;;;;;;1999.90;999.90;;;;;;;16.90;100.00;97101.47;5069074;28;20136;-92
2023/08/29 02:55:26;;;;;;;1999.90;999.90;;;;;;;16.95;100.00;97093.91;5085052;28;20090;-91
2023/08/29 02:57:52;;;;;;;1999.90;999.90;;;;;;;16.86;100.00;97083.06;5085648;28;20033;-93
2023/08/29 03:00:18;;;;;;;1999.90;999.90;;;;;;;16.89;100.00;97086.34;5085208;28;20048;-94
2023/08/29 03:02:44;;;;;;;1999.90;999.90;;;;;;;16.92;100.00;97098.69;5068856;28;20041;-94
2023/08/29 03:05:10;;;;;;;1999.90;999.90;;;;;;;16.87;100.00;97090.13;5068784;28;20033;-92
2023/08/29 03:07:36;;;;;;;1999.90;999.90;;;;;;;16.81;100.00;97078.06;5068753;28;20094;-91
2023/08/29 03:10:04;;;;;;;1999.90;999.90;;;;;;;16.91;100.00;97094.28;5068937;28;20616;-93
2023/08/29 03:12:29;;;;;;;1999.90;999.90;;;;;;;16.88;100.00;97083.78;5051391;28;20037;-90
2023/08/29 03:14:55;;;;;;;1999.90;999.90;;;;;;;16.91;100.00;97079.00;5068059;28;20056;-92
2023/08/29 03:17:21;;;;;;;1999.90;999.90;;;;;;;16.87;100.00;97085.59;5050619;28;20566;-93
2023/08/29 03:19:47;;;;;;;1999.90;999.90;;;;;;;16.89;100.00;97083.66;5067985;28;20060;-95
2023/08/29 03:22:13;;;;;;;1999.90;999.90;;;;;;;16.92;100.00;97085.25;5051425;28;20493;-92
2023/08/29 03:24:39;;;;;;;1999.90;999.90;;;;;;;16.95;100.00;97093.06;5068022;28;20041;-93
2023/08/29 03:27:07;;;;;;;1999.90;999.90;;;;;;;16.81;100.00;97067.31;5067812;28;20131;-92
2023/08/29 03:29:32;;;;;;;1999.90;999.90;;;;;;;16.85;100.00;97068.78;5051560;28;20094;-91
2023/08/29 03:31:58;;;;;;;1999.90;999.90;;;;;;;16.89;100.00;97077.44;5050218;28;20045;-93
2023/08/29 03:34:24;;;;;;;1999.90;999.90;;;;;;;16.97;100.00;97097.31;5084273;28;21520;-93
2023/08/29 03:36:50;;;;;;;1999.90;999.90;;;;;;;16.92;100.00;97080.75;5051320;28;20678;-92
2023/08/29 03:39:16;;;;;;;1999.90;999.90;;;;;;;16.92;100.00;97083.41;5051042;28;20049;-91
2023/08/29 03:41:42;;;;;;;1999.90;999.90;;;;;;;16.97;100.00;97096.47;5050902;28;20033;-93
2023/08/29 03:44:09;;;;;;;1999.90;999.90;;;;;;;16.83;100.00;97076.97;5050684;28;20045;-92
2023/08/29 03:46:35;;;;;;;1999.90;999.90;;;;;;;16.95;100.00;97090.38;5049688;28;20033;-93
2023/08/29 03:49:01;;;;;;;1999.90;999.90;;;;;;;16.91;100.00;97097.81;5049171;28;20594;-93
2023/08/29 03:51:27;;;;;;;1999.90;999.90;;;;;;;16.90;100.00;97096.13;5050735;28;20041;-90
2023/08/29 03:53:53;;;;;;;1999.90;999.90;;;;;;;16.80;100.00;97084.38;5066961;28;20044;-93
2023/08/29 03:56:19;;;;;;;1999.90;999.90;;;;;;;16.84;100.00;97091.22;5050601;28;20040;-91
2023/08/29 03:58:46;;;;;;;1999.90;999.90;;;;;;;16.80;100.00;97082.56;5084281;28;20040;-91
2023/08/29 04:01:13;;;;;;;1999.90;999.90;;;;;;;16.78;100.00;97083.63;5049422;28;20087;-91
2023/08/29 04:03:39;;;;;;;1999.90;999.90;;;;;;;16.89;100.00;97083.66;5050475;28;20079;-92
2023/08/29 04:06:05;;;;;;;1999.90;999.90;;;;;;;16.88;100.00;97086.47;5084197;28;20041;-91
2023/08/29 04:08:31;;;;;;;1999.90;999.90;;;;;;;16.90;100.00;97089.91;5050770;28;20069;-91
2023/08/29 04:10:57;;;;;;;1999.90;999.90;;;;;;;16.89;100.00;97112.34;5066284;28;20037;-93
2023/08/29 04:13:22;;;;;;;1999.90;999.90;;;;;;;16.72;100.00;97084.09;5083594;28;20037;-91
2023/08/29 04:15:48;;;;;;;1999.90;999.90;;;;;;;16.68;100.00;97091.56;5048900;28;20033;-91
2023/08/29 04:18:16;;;;;;;1999.90;999.90;;;;;;;16.66;100.00;97087.28;5067346;28;20037;-92
2023/08/29 04:20:43;;;;;;;1999.90;999.90;;;;;;;16.81;100.00;97110.28;5048891;28;20044;-92
2023/08/29 04:23:10;;;;;;;1999.90;999.90;;;;;;;16.88;100.00;97108.81;5085140;28;20037;-91
2023/08/29 04:25:36;;;;;;;1999.90;999.90;;;;;;;16.68;100.00;97099.63;5051852;28;20041;-93
2023/08/29 04:28:03;;;;;;;1999.90;999.90;;;;;;;16.52;100.00;97080.31;5072249;28;20045;-92
2023/08/29 04:30:29;;;;;;;1999.90;999.90;;;;;;;16.45;100.00;97087.13;5053865;28;20044;-91
2023/08/29 04:32:55;;;;;;;1999.90;999.90;;;;;;;16.43;100.00;97092.63;5054030;28;20140;-93
2023/08/29 04:35:23;;;;;;;1999.90;999.90;;;;;;;16.50;100.00;97104.56;5071591;28;20144;-90
2023/08/29 04:37:49;;;;;;;1999.90;999.90;;;;;;;16.59;100.00;97111.03;5053283;28;20033;-93
2023/08/29 04:40:17;;;;;;;1999.90;999.90;;;;;;;16.53;100.00;97108.88;5071453;28;20047;-93
2023/08/29 04:42:43;;;;;;;1999.90;999.90;;;;;;;16.53;100.00;97107.03;5086742;28;20053;-91
2023/08/29 04:45:10;;;;;;;1999.90;999.90;;;;;;;16.52;100.00;97113.34;5053661;28;20045;-91
2023/08/29 04:47:36;;;;;;;1999.90;999.90;;;;;;;16.53;100.00;97124.97;5054435;28;20048;-92
2023/08/29 04:50:03;;;;;;;1999.90;999.90;;;;;;;16.56;100.00;97109.47;5070697;28;20110;-92
2023/08/29 04:52:31;;;;;;;1999.90;999.90;;;;;;;16.57;100.00;97118.38;5054444;28;20037;-92
2023/08/29 04:54:57;;;;;;;1999.90;999.90;;;;;;;16.57;100.00;97110.34;5054353;28;20037;-92
2023/08/29 04:57:23;;;;;;;1999.90;999.90;;;;;;;16.43;100.00;97095.28;5071392;28;20079;-91
2023/08/29 04:59:49;;;;;;;1999.90;999.90;;;;;;;16.44;100.00;97099.69;5088904;28;20444;-91
2023/08/29 05:02:15;;;;;;;1999.90;999.90;;;;;;;16.51;100.00;97100.94;5055462;28;20044;-92
2023/08/29 05:04:46;;;;;;;1999.90;999.90;;;;;;;16.56;100.00;97124.72;5072646;28;20098;-93
2023/08/29 05:07:12;;;;;;;1999.90;999.90;;;;;;;16.36;100.00;97123.56;5055089;28;20041;-93
2023/08/29 05:09:39;;;;;;;1999.90;999.90;;;;;;;16.22;100.00;97111.22;5088783;28;20063;-92
2023/08/29 05:12:10;;;;;;;1999.90;999.90;;;;;;;16.06;100.00;97111.53;5056400;28;20033;-92
2023/08/29 05:14:36;;;;;;;1999.90;999.90;;;;;;;16.01;100.00;97103.84;5073168;28;20456;-91
2023/08/29 05:17:01;;;;;;;1999.90;999.90;;;;;;;16.13;100.00;97123.50;5053353;28;20076;-91
2023/08/29 05:19:27;;;;;;;1999.90;999.90;;;;;;;16.23;100.00;97135.22;5053512;28;20041;-93
2023/08/29 05:21:54;;;;;;;1999.90;999.90;;;;;;;16.25;100.00;97120.88;5071481;28;20132;-92
2023/08/29 05:24:19;;;;;;;1999.90;999.90;;;;;;;16.40;100.00;97106.28;5054690;28;20106;-93
2023/08/29 05:26:48;;;;;;;1999.90;999.90;;;;;;;16.48;100.00;97119.97;5055306;28;20436;-92
2023/08/29 05:29:14;;;;;;;1999.90;999.90;;;;;;;16.43;100.00;97114.06;5088370;28;20077;-92
2023/08/29 05:31:40;;;;;;;1999.90;999.90;;;;;;;16.51;100.00;97108.13;5088527;28;20065;-91
2023/08/29 05:34:06;;;;;;;1999.90;999.90;;;;;;;16.50;100.00;97115.28;5055135;28;20490;-93
2023/08/29 05:36:31;;;;;;;1999.90;999.90;;;;;;;16.57;100.00;97111.19;5088158;28;20033;-92
2023/08/29 05:38:57;;;;;;;1999.90;999.90;;;;;;;16.85;100.00;97119.81;5070966;28;20040;-91
2023/08/29 05:41:23;;;;;;;1999.90;999.90;;;;;;;16.82;100.00;97103.91;5071092;28;20075;-92
2023/08/29 05:43:50;;;;;;;1999.90;999.90;;;;;;;16.78;100.00;97103.25;5054401;28;20037;-92
2023/08/29 05:46:16;;;;;;;1999.90;999.90;;;;;;;16.77;100.00;97109.63;5067146;28;20064;-92
2023/08/29 05:48:42;;;;;;;1999.90;999.90;;;;;;;16.78;100.00;97123.88;5053692;28;20049;-94
2023/08/29 05:51:08;;;;;;;1999.90;999.90;;;;;;;16.85;100.00;97122.47;5053606;28;20406;-93
2023/08/29 05:53:34;;;;;;;1999.90;999.90;;;;;;;17.00;100.00;97118.59;5053350;28;20039;-91
2023/08/29 05:55:59;;;;;;;1999.90;999.90;;;;;;;17.13;100.00;97125.63;5053733;28;20040;-93
2023/08/29 05:58:25;;;;;;;1999.90;999.90;;;;;;;17.23;100.00;97118.56;5052218;28;20102;-92
2023/08/29 06:00:54;;;;;;;1999.90;999.90;;;;;;;17.12;100.00;97132.00;5069149;28;20060;-92
2023/08/29 06:03:20;;;;;;;1999.90;999.90;;;;;;;17.06;100.00;97130.66;5050776;28;20091;-91
2023/08/29 06:05:48;;;;;;;1999.90;999.90;;;;;;;17.14;100.00;97124.69;5070239;28;20037;-93
2023/08/29 06:08:14;;;;;;;1999.90;999.90;;;;;;;17.16;100.00;97133.47;5052819;28;20063;-92
2023/08/29 06:10:40;;;;;;;1999.90;999.90;;;;;;;17.35;100.00;97124.75;5069903;28;20274;-92
2023/08/29 06:13:06;;;;;;;1999.90;999.90;;;;;;;17.53;100.00;97119.75;5053111;28;20047;-92
2023/08/29 06:15:32;;;;;;;1999.90;999.90;;;;;;;17.68;100.00;97137.31;5068600;28;20037;-91
2023/08/29 06:17:59;;;;;;;1999.90;999.90;;;;;;;17.53;100.00;97131.34;5053086;28;20111;-90
2023/08/29 06:20:25;;;;;;;1999.90;999.90;;;;;;;17.69;100.00;97139.00;5051685;28;20513;-92
2023/08/29 06:22:51;;;;;;;1999.90;999.90;;;;;;;17.61;100.00;97118.13;5069025;28;20090;-91
2023/08/29 06:25:17;;;;;;;1999.90;999.90;;;;;;;17.65;100.00;97121.41;5085949;28;20041;-93
2023/08/29 06:27:43;;;;;;;1999.90;999.90;;;;;;;17.73;100.00;97118.09;5051831;28;20067;-92
2023/08/29 06:30:13;;;;;;;1999.90;999.90;;;;;;;17.86;100.00;97132.25;5051158;28;20044;-92
2023/08/29 06:32:39;;;;;;;1999.90;999.90;;;;;;;18.01;100.00;97135.53;5068579;28;20057;-92
2023/08/29 06:35:09;;;;;;;1999.90;999.90;;;;;;;18.11;100.00;97139.16;5049524;28;20056;-92
2023/08/29 06:37:36;;;;;;;1999.90;999.90;;;;;;;18.21;100.00;97129.31;5068695;28;20437;-91
2023/08/29 06:40:04;;;;;;;1999.90;999.90;;;;;;;18.31;100.00;97117.78;5085193;28;20123;-93
2023/08/29 06:42:31;;;;;;;1999.90;999.90;;;;;;;18.61;100.00;97135.84;5051970;28;20033;-92
2023/08/29 06:44:58;;;;;;;1999.90;999.90;;;;;;;18.63;100.00;97125.81;5068469;28;20483;-92
2023/08/29 06:47:24;;;;;;;1999.90;999.90;;;;;;;18.59;100.00;97119.81;5066901;28;20502;-91
2023/08/29 06:49:50;;;;;;;1999.90;999.90;;;;;;;18.73;100.00;97140.16;5050287;28;20037;-92
2023/08/29 06:52:17;;;;;;;1999.90;999.90;;;;;;;18.79;100.00;97131.59;5066764;28;20033;-94
2023/08/29 06:54:43;;;;;;;1999.90;999.90;;;;;;;19.06;100.00;97128.34;5051254;28;20549;-92
2023/08/29 06:57:09;;;;;;;1999.90;999.90;;;;;;;19.11;100.00;97130.63;5050894;28;20033;-92
2023/08/29 06:59:35;;;;;;;1999.90;999.90;;;;;;;19.15;100.00;97112.31;5051441;28;20040;-92
2023/08/29 07:02:00;;;;;;;1999.90;999.90;;;;;;;19.41;100.00;97127.06;5050058;28;20610;-92
2023/08/29 07:04:26;;;;;;;1999.90;999.90;;;;;;;19.42;100.00;97127.91;5067974;28;20064;-91
2023/08/29 07:06:55;;;;;;;1999.90;999.90;;;;;;;18.93;100.00;97118.75;5084315;28;20194;-91
2023/08/29 07:09:22;;;;;;;;;;;;;;;18.54;100.00;97142.72;5069086;28;20098;-94
2023/08/29 07:11:48;;;;;;;1999.90;999.90;;;;;;;18.29;100.00;97139.44;5068610;28;19921;-92
2023/08/29 07:14:14;;;;;;;1999.90;999.90;;;;;;;18.21;100.00;97140.06;5068074;28;20051;-90
2023/08/29 07:16:40;;;;;;;1999.90;999.90;;;;;;;18.35;100.00;97132.69;5067641;28;20068;-91
2023/08/29 07:19:06;;;;;;;1999.90;999.90;;;;;;;18.57;100.00;97137.09;5068613;28;20061;-91
2023/08/29 07:21:31;;;;;;;1999.90;999.90;;;;;;;18.81;100.00;97136.84;5068391;28;20044;-92
2023/08/29 07:23:57;;;;;;;1999.90;999.90;;;;;;;18.94;100.00;97134.78;5068559;28;20083;-92
2023/08/29 07:26:24;;;;;;;1999.90;999.90;;;;;;;19.00;100.00;97141.50;5051495;28;20048;-94
2023/08/29 07:28:50;;;;;;;1999.90;999.90;;;;;;;19.12;100.00;97153.03;5051614;28;20051;-92
2023/08/29 07:31:18;;;;;;;1999.90;999.90;;;;;;;19.24;100.00;97125.00;5050827;28;20398;-91
2023/08/29 07:33:43;;;;;;;1999.90;999.90;;;;;;;19.55;100.00;97143.84;5051777;28;20131;-92
2023/08/29 07:36:09;;;;;;;1999.90;999.90;;;;;;;19.75;100.00;97140.22;5051238;28;20124;-91
2023/08/29 07:38:35;;;;;;;1999.90;999.90;;;;;;;20.10;100.00;97157.72;5051674;28;20099;-93
2023/08/29 07:41:01;;;;;;;1999.90;999.90;;;;;;;20.14;100.00;97159.16;5067345;28;20410;-93
2023/08/29 07:43:28;;;;;;;1999.90;999.90;;;;;;;19.56;100.00;97159.00;5085108;28;21344;-90
2023/08/29 07:45:54;;;;;;;1999.90;999.90;;;;;;;19.92;100.00;97165.66;5050676;28;20037;-91
2023/08/29 07:48:20;;;;;;;1999.90;999.90;;;;;;;19.57;100.00;97153.47;5068313;28;20047;-93
2023/08/29 07:50:46;;;;;;;1999.90;999.90;;;;;;;20.08;100.00;97146.22;5051941;28;20513;-92
2023/08/29 07:53:12;;;;;;;1999.90;999.90;;;;;;;20.58;100.00;97156.06;5052671;28;20127;-94
2023/08/29 07:55:40;;;;;;;1999.90;999.90;;;;;;;20.58;100.00;97178.53;5067539;28;20048;-93
2023/08/29 07:58:06;;;;;;;1999.90;999.90;;;;;;;20.81;100.00;97179.06;5050382;28;20037;-92
2023/08/29 08:00:34;;;;;;;1999.90;999.90;;;;;;;21.20;100.00;97180.81;5086768;28;20045;-92
2023/08/29 08:03:00;;;;;;;1999.90;999.90;;;;;;;21.75;100.00;97180.91;5090305;28;20049;-95
2023/08/29 08:05:27;;;;;;;1999.90;999.90;;;;;;;22.21;100.00;97165.53;5076045;28;20037;-93
2023/08/29 08:07:53;;;;;;;1999.90;999.90;;;;;;;22.64;100.00;97182.91;5075513;28;20044;-95
2023/08/29 08:10:19;;;;;;;1999.90;999.90;;;;;;;23.06;100.00;97178.66;5075096;28;20041;-93
2023/08/29 08:12:47;;;;;;;1999.90;999.90;;;;;;;23.05;100.00;97177.81;5057574;28;20068;-96
2023/08/29 08:15:21;;;;;;;1999.90;999.90;;;;;;;22.69;100.00;97185.97;5057395;28;20090;-94
2023/08/29 08:17:49;;;;;;;1999.90;999.90;;;;;;;22.76;100.00;97187.03;5073433;28;20045;-94
2023/08/29 08:20:15;;;;;;;1999.90;999.90;;;;;;;22.63;100.00;97177.63;5090176;28;20069;-94
2023/08/29 08:22:41;;;;;;;1999.90;999.90;;;;;;;22.68;100.00;97184.25;5056074;28;20498;-93
2023/08/29 08:25:09;;;;;;;1999.90;999.90;;;;;;;22.84;100.00;97207.09;5056694;28;20041;-95
2023/08/29 08:27:36;;;;;;;1999.90;999.90;;;;;;;23.14;100.00;97203.97;5072685;28;20045;-93
2023/08/29 08:30:05;;;;;;;1999.90;999.90;;;;;;;23.06;98.46;97187.66;5055924;28;20132;-92
2023/08/29 08:32:31;;;;;;;1999.90;999.90;;;;;;;23.16;99.95;97182.09;5072616;28;20491;-93
2023/08/29 08:34:59;;;;;;;1999.90;999.90;;;;;;;23.22;99.13;97191.47;5072798;28;20041;-94
2023/08/29 08:37:25;;;;;;;1999.90;999.90;;;;;;;22.21;100.00;97192.59;5055864;28;20037;-94
2023/08/29 08:39:51;;;;;;;1999.90;999.90;;;;;;;22.13;100.00;97198.78;5055658;28;20135;-93
2023/08/29 08:42:18;;;;;;;1999.90;999.90;;;;;;;21.55;100.00;97215.31;5055660;28;20063;-93
2023/08/29 08:44:45;;;;;;;1999.90;999.90;;;;;;;21.33;100.00;97211.94;5072236;28;20045;-92
2023/08/29 08:47:12;;;;;;;1999.90;999.90;;;;;;;20.89;100.00;97211.63;5071853;28;20045;-92
2023/08/29 08:49:38;;;;;;;1999.90;999.90;;;;;;;20.67;100.00;97217.34;5054602;28;20434;-93
2023/08/29 08:52:06;;;;;;;1999.90;999.90;;;;;;;20.75;100.00;97214.75;5072141;28;20473;-93
2023/08/29 08:54:32;;;;;;;1999.90;999.90;;;;;;;20.65;100.00;97203.97;5055888;28;20586;-92
2023/08/29 08:56:58;;;;;;;1999.90;999.90;;;;;;;20.96;100.00;97228.09;5072038;28;20128;-94
2023/08/29 08:59:25;;;;;;;1999.90;999.90;;;;;;;21.14;100.00;97225.50;5055395;28;20048;-93
2023/08/29 09:01:51;;;;;;;1999.90;999.90;;;;;;;21.59;100.00;97213.16;5071902;28;20049;-93
2023/08/29 09:04:17;;;;;;;1999.90;999.90;;;;;;;22.40;100.00;97209.72;5056412;28;20067;-93
2023/08/29 09:06:43;;;;;;;1999.90;999.90;;;;;;;22.83;100.00;97210.81;5056266;28;20033;-93
2023/08/29 09:09:17;;;;;;;1999.90;999.90;;;;;;;23.38;99.81;97205.16;5055185;28;20040;-94
2023/08/29 09:11:43;;;;;;;1999.90;999.90;;;;;;;23.49;98.86;97223.03;5088608;28;20109;-93
2023/08/29 09:14:09;;;;;;;1999.90;999.90;;;;;;;23.53;93.12;97222.53;5090768;28;20077;-93
2023/08/29 09:16:35;;;;;;;1999.90;999.90;;;;;;;22.88;96.98;97193.09;5073398;28;20115;-94
2023/08/29 09:19:01;;;;;;;1999.90;999.90;;;;;;;22.94;99.47;97215.97;5073534;28;20515;-93
2023/08/29 09:21:27;;;;;;;1999.90;999.90;;;;;;;22.40;100.00;97210.59;5089985;28;20045;-92
2023/08/29 09:23:54;;;;;;;1999.90;999.90;;;;;;;22.58;100.00;97221.44;5073465;28;20144;-92
2023/08/29 09:26:21;;;;;;;1999.90;999.90;;;;;;;22.82;99.66;97220.81;5069186;28;20443;-93
2023/08/29 09:28:48;;;;;;;1999.90;999.90;;;;;;;22.88;100.00;97211.19;5074233;28;20494;-94
2023/08/29 09:31:16;;;;;;;1999.90;999.90;;;;;;;22.80;98.83;97216.56;5056575;28;20513;-95
2023/08/29 09:33:42;;;;;;;1999.90;999.90;;;;;;;22.70;98.63;97206.63;5089640;28;20549;-92
2023/08/29 09:36:08;;;;;;;1999.90;999.90;;;;;;;22.66;99.42;97213.41;5072755;28;20033;-93
2023/08/29 09:38:35;;;;;;;1999.90;999.90;;;;;;;22.60;100.00;97227.56;5072546;28;20045;-94
2023/08/29 09:41:01;;;;;;;1999.90;999.90;;;;;;;22.53;100.00;97221.91;5073311;28;20049;-93
2023/08/29 09:43:29;;;;;;;1999.90;999.90;;;;;;;22.49;100.00;97234.06;5056667;28;20063;-92
2023/08/29 09:45:57;;;;;;;1999.90;999.90;;;;;;;22.22;100.00;97215.13;5073697;28;20041;-92
2023/08/29 09:48:23;;;;;;;1999.90;999.90;;;;;;;22.29;100.00;97235.19;5055198;28;20052;-94
2023/08/29 09:50:50;;;;;;;1999.90;999.90;;;;;;;22.17;100.00;97231.81;5073541;28;20033;-93
2023/08/29 09:53:17;;;;;;;1999.90;999.90;;;;;;;21.88;100.00;97226.56;5072915;28;20037;-93
2023/08/29 09:55:45;;;;;;;1999.90;999.90;;;;;;;21.74;100.00;97228.75;5054672;28;20132;-93
2023/08/29 09:58:12;;;;;;;1999.90;999.90;;;;;;;21.81;100.00;97218.19;5071836;28;20160;-92
2023/08/29 10:00:41;;;;;;;1999.90;999.90;;;;;;;21.80;100.00;97232.72;5070275;28;20041;-93
2023/08/29 10:03:08;;;;;;;1999.90;999.90;;;;;;;21.90;100.00;97246.19;5071183;28;20041;-92
2023/08/29 10:05:37;;;;;;;1999.90;999.90;;;;;;;22.03;100.00;97224.19;5087379;28;20532;-92
2023/08/29 10:08:07;;;;;;;1999.90;999.90;;;;;;;22.35;100.00;97238.13;5071312;28;20056;-94
2023/08/29 10:10:34;;;;;;;1999.90;999.90;;;;;;;22.50;100.00;97235.75;5055541;28;20040;-92
2023/08/29 10:13:02;;;;;;;1999.90;999.90;;;;;;;22.84;100.00;97228.78;5054915;28;20107;-92
2023/08/29 10:15:29;;;;;;;1999.90;999.90;;;;;;;23.13;98.02;97232.09;5071854;28;20037;-92
2023/08/29 10:17:57;;;;;;;1999.90;999.90;;;;;;;23.38;95.95;97245.84;5071729;28;20503;-91
2023/08/29 10:20:25;;;;;;;1999.90;999.90;;;;;;;23.02;93.49;97224.22;5087357;28;20402;-93
2023/08/29 10:22:52;;;;;;;1999.90;999.90;;;;;;;23.01;95.93;97230.66;5070743;28;20041;-92
2023/08/29 10:25:21;;;;;;;1999.90;999.90;;;;;;;23.02;98.00;97239.63;5053523;28;20057;-93
2023/08/29 10:27:49;;;;;;;1999.90;999.90;;;;;;;22.76;99.92;97232.28;5069540;28;20367;-93
2023/08/29 10:30:15;;;;;;;1999.90;999.90;;;;;;;22.75;99.94;97231.44;5087004;28;20507;-93
2023/08/29 10:32:43;;;;;;;1999.90;999.90;;;;;;;22.99;100.00;97235.34;5071326;28;20128;-93
2023/08/29 10:35:18;;;;;;;1999.90;999.90;;;;;;;23.07;97.61;97232.72;5070476;28;20044;-94
2023/08/29 10:37:44;;;;;;;1999.90;999.90;;;;;;;23.29;99.11;97228.66;5088254;28;20448;-94
2023/08/29 10:40:13;;;;;;;1999.90;999.90;;;;;;;23.17;99.95;97238.91;5070242;28;20044;-92
2023/08/29 10:42:49;;;;;;;1999.90;999.90;;;;;;;23.34;99.16;97239.03;5052388;28;20136;-94
2023/08/29 10:45:16;;;;;;;1999.90;999.90;;;;;;;23.32;96.24;97225.63;5051489;28;20037;-92